Dravosburg, PA (15034)

3:10 PM EDT on September 21, 2014 (GMT -0400)
Lower Gates Manor | Change Station
CLOSE
Current Station
Personal Weather Station
Location: Munhall, PA
Elevation: 1050 ft
Nearby Weather Stations

Elev 1050 ft 40.39 °N, 79.92 °W | Updated 8 minutes ago

Mostly Cloudy
Mostly Cloudy
76.3 °F
Feels Like 78 °F
N
2.2
Wind Variable Wind from ENE

Today
High -- | Low -- °F
--% Chance of Precip.
Yesterday
High -- | Low -- °F
Precip. -- in
7:06 AM 7:18 PM
Waning Crescent, 6% visible
Pressure 29.68 in
Visibility 8.0 miles
Clouds Few 3200 ft
Scattered Clouds 4700 ft
Mostly Cloudy 6500 ft
Heat Index 78 °F
Dew Point 64 °F
Humidity 65%
Rainfall 0.09 in
Snow Depth Not available.
UV 3 out of 12
Pollen 1.50 out of 12
Ozone Good
PM2.5 Moderate
Flu Activity Not available.
METAR KAGC 211853Z AUTO 21014G20KT 8SM FEW032 SCT047 BKN065 23/16 A2969 RMK AO2 RAB07E31 SLP049 P0006 T02280161 TSNO

More Conditions Fewer Conditions

Pressure 29.68 in
Visibility 8.0 miles
Clouds Few 3200 ft
Scattered Clouds 4700 ft
Mostly Cloudy 6500 ft
Heat Index 78 °F
Dew Point 64 °F
Humidity 65%
Rainfall 0.09 in
Snow Depth Not available.
UV 3 out of 12
Pollen 1.50 out of 12
Ozone Good
PM2.5 Moderate
Flu Activity Not available.
METAR KAGC 211853Z AUTO 21014G20KT 8SM FEW032 SCT047 BKN065 23/16 A2969 RMK AO2 RAB07E31 SLP049 P0006 T02280161 TSNO

More Conditions Fewer Conditions

10-Day Weather Forecast

Almanac

Astronomy

Sep. 21, 2014 Rise Set
Actual Time 7:06 AM EDT 7:18 PM EDT
Civil Twilight 6:38 AM EDT 7:45 PM EDT
Nautical Twilight 6:07 AM EDT 8:17 PM EDT
Astronomical Twilight 5:34 AM EDT 8:49 PM EDT
Moon 4:38 AM EDT 5:53 PM EDT
Length of Visible Light 13h 06m
Length of Day
12h 12m
Tomorrow will be 2m 39s shorter.
Waning Crescent, 6% of the Moon is Illuminated
Today
Waning Crescent
Sep 24
New
Oct 1
First Quarter
Oct 8
Full
Oct 15
Last Quarter

Today's Extremes

State Highs State Lows

Community

WunderPhotos

Upload Photos

1,755,226 photos uploaded!

Nearby

Air Quality

  Air Quality AQ Index Pollutant
Yesterday Moderate
PM2.5
Yesterday Good
OZONE
Current Moderate
PM2.5
Current Good
OZONE
Sunday Moderate
PM2.5
Monday Good
PM2.5
Tuesday Good
PM2.5

Snow Depth

Station Depth Elevation
No new snow has been reported.

Earthquake Activity

City Distance Mag. Time & Date
No recent earthquake activity has been reported nearby.
Minimum magnitude displayed is 2.5.

Coastal Water Temperatures

Place Temperature
No Stations Reporting

Nearby Weather Stations